createdAt,value
2019-05-28T00:01:45.159Z,100184.92
2019-05-28T00:04:10.937Z,100179.25
2019-05-28T00:06:36.739Z,100174.22
2019-05-28T00:09:05.508Z,100172.97
2019-05-28T00:11:31.309Z,100173.61
2019-05-28T00:13:57.092Z,100169.14
2019-05-28T00:16:22.892Z,100166.36
2019-05-28T00:18:50.823Z,100168.19
2019-05-28T00:21:16.622Z,100097.98
2019-05-28T00:23:42.412Z,100162.56
2019-05-28T00:26:08.203Z,100154.68
2019-05-28T00:28:33.981Z,100163.13
2019-05-28T00:30:59.769Z,100154.88
2019-05-28T00:33:25.560Z,100155.80
2019-05-28T00:35:51.340Z,100155.10
2019-05-28T00:38:17.144Z,100152.52
2019-05-28T00:40:42.936Z,100153.52
2019-05-28T00:43:08.726Z,100152.47
2019-05-28T00:45:34.504Z,100147.95
2019-05-28T00:48:00.308Z,100148.06
2019-05-28T00:50:26.079Z,100152.84
2019-05-28T00:52:51.968Z,100149.91
2019-05-28T00:55:17.840Z,100150.98
2019-05-28T00:57:44.833Z,100153.81
2019-05-28T01:00:11.304Z,100162.95
2019-05-28T01:02:37.075Z,100152.49
2019-05-28T01:05:04.591Z,100145.74
2019-05-28T01:07:30.411Z,100149.73
2019-05-28T01:09:56.200Z,100157.09
2019-05-28T01:12:22.046Z,100154.26
2019-05-28T01:14:47.842Z,100150.45
2019-05-28T01:17:13.663Z,100152.63
2019-05-28T01:19:39.445Z,100144.75
2019-05-28T01:22:05.239Z,100147.34
2019-05-28T01:24:31.049Z,100145.37
2019-05-28T01:26:56.835Z,100136.94
2019-05-28T01:29:22.636Z,100137.45
2019-05-28T01:31:48.423Z,100140.77
2019-05-28T01:35:09.903Z,100140.66
2019-05-28T01:37:35.722Z,100134.53
2019-05-28T01:40:04.213Z,100132.02
2019-05-28T01:42:30.024Z,100130.28
2019-05-28T01:44:55.839Z,100133.57
2019-05-28T01:47:21.620Z,100123.42
2019-05-28T01:49:47.427Z,100125.48
2019-05-28T01:52:13.210Z,100114.08
2019-05-28T01:54:39.009Z,100114.00
2019-05-28T01:57:04.799Z,100106.34
2019-05-28T01:59:30.599Z,100102.33
2019-05-28T02:01:56.383Z,100101.61
2019-05-28T02:04:22.188Z,100097.50
2019-05-28T02:06:47.994Z,100092.83
2019-05-28T02:09:13.790Z,100090.24
2019-05-28T02:11:39.594Z,100087.23
2019-05-28T02:14:05.417Z,100092.23
2019-05-28T02:16:31.253Z,100094.30
2019-05-28T02:18:57.126Z,100094.92
2019-05-28T02:21:22.936Z,100098.44
2019-05-28T02:23:48.770Z,100104.16
2019-05-28T02:26:14.553Z,100103.45
2019-05-28T02:28:40.351Z,100110.09
2019-05-28T02:31:06.148Z,100113.02
2019-05-28T02:33:31.957Z,100122.01
2019-05-28T02:35:57.772Z,100119.55
2019-05-28T02:38:23.550Z,100118.42
2019-05-28T02:40:49.357Z,100119.45
2019-05-28T02:43:15.166Z,100119.96
2019-05-28T02:45:40.998Z,100124.00
2019-05-28T02:48:06.888Z,100128.36
2019-05-28T02:50:54.400Z,100133.74
2019-05-28T02:53:20.492Z,100128.33
2019-05-28T02:55:46.707Z,100122.20
2019-05-28T02:58:13.627Z,100125.84
2019-05-28T03:00:41.531Z,100125.84
2019-05-28T03:03:09.444Z,100131.33
2019-05-28T03:05:36.056Z,100132.46
2019-05-28T03:08:02.574Z,100129.59
2019-05-28T03:10:59.852Z,100135.70
2019-05-28T03:13:04.280Z,100134.58
2019-05-28T03:15:32.674Z,100139.13
2019-05-28T03:17:58.593Z,100126.19
2019-05-28T03:20:24.587Z,100126.19
2019-05-28T03:22:50.770Z,100130.63
2019-05-28T03:25:17.545Z,100132.31
2019-05-28T03:27:43.360Z,100136.05
2019-05-28T03:30:09.798Z,100135.42
2019-05-28T03:32:35.687Z,100141.84
2019-05-28T03:35:02.835Z,100133.66
2019-05-28T03:37:29.229Z,100144.35
2019-05-28T03:39:56.427Z,100144.35
2019-05-28T03:42:22.234Z,100148.58
2019-05-28T03:44:48.022Z,100145.58
2019-05-28T03:47:13.830Z,100149.30
2019-05-28T03:49:39.612Z,100152.84
2019-05-28T03:52:05.411Z,100161.88
2019-05-28T03:54:31.194Z,100161.34
2019-05-28T03:56:56.993Z,100158.33
2019-05-28T03:59:22.773Z,100156.34
2019-05-28T04:01:48.581Z,100160.92
2019-05-28T04:04:14.367Z,100158.02
2019-05-28T04:06:40.179Z,100167.27
2019-05-28T04:09:06.861Z,100172.84
2019-05-28T04:11:44.304Z,100165.60
2019-05-28T04:14:01.100Z,100174.50
2019-05-28T04:16:26.900Z,100166.95
2019-05-28T04:18:52.689Z,100171.30
2019-05-28T04:21:18.518Z,100172.13
2019-05-28T04:23:44.330Z,100178.14
2019-05-28T04:26:10.118Z,100181.03
2019-05-28T04:28:36.018Z,100187.98
2019-05-28T04:31:01.798Z,100185.51
2019-05-28T04:33:27.602Z,100182.28
2019-05-28T04:35:53.410Z,100189.33
2019-05-28T04:38:19.236Z,100194.31
2019-05-28T04:40:45.028Z,100202.31
2019-05-28T04:43:10.844Z,100206.36
2019-05-28T04:45:36.655Z,100207.80
2019-05-28T04:48:02.667Z,100215.17
2019-05-28T04:50:28.472Z,100219.09
2019-05-28T04:52:54.295Z,100218.59
2019-05-28T04:55:20.107Z,100222.41
2019-05-28T04:57:45.904Z,100220.56
2019-05-28T05:00:11.886Z,100221.91
2019-05-28T05:02:37.672Z,100229.78
2019-05-28T05:05:05.971Z,100225.52
2019-05-28T05:07:31.770Z,100227.08
2019-05-28T05:09:57.572Z,100232.79
2019-05-28T05:12:23.350Z,100238.28
2019-05-28T05:14:49.184Z,100230.50
2019-05-28T05:17:14.961Z,100226.35
2019-05-28T05:19:40.794Z,100235.38
2019-05-28T05:22:06.578Z,100232.05
2019-05-28T05:24:32.418Z,100231.22
2019-05-28T05:26:58.224Z,100233.17
2019-05-28T05:29:24.020Z,100237.84
2019-05-28T05:31:49.825Z,100241.05
2019-05-28T05:34:15.641Z,100238.78
2019-05-28T05:36:41.433Z,100234.02
2019-05-28T05:39:07.335Z,100234.81
2019-05-28T05:41:33.129Z,100232.39
2019-05-28T05:43:58.951Z,100235.49
2019-05-28T05:46:24.734Z,100240.80
2019-05-28T05:48:50.539Z,100248.04
2019-05-28T05:51:16.330Z,100246.82
2019-05-28T05:53:42.132Z,100243.53
2019-05-28T05:56:08.052Z,100248.83
2019-05-28T05:58:33.854Z,100249.59
2019-05-28T06:00:59.638Z,100245.64
2019-05-28T06:03:39.943Z,100247.20
2019-05-28T06:05:53.136Z,100246.61
2019-05-28T06:08:18.926Z,100249.11
2019-05-28T06:10:44.725Z,100253.17
2019-05-28T06:13:10.532Z,100259.09
2019-05-28T06:15:36.348Z,100252.86
2019-05-28T06:18:02.276Z,100261.43
2019-05-28T06:20:28.172Z,100261.77
2019-05-28T06:22:53.973Z,100258.66
2019-05-28T06:25:19.780Z,100263.66
2019-05-28T06:27:45.597Z,100270.55
2019-05-28T06:30:11.496Z,100264.55
2019-05-28T06:32:38.546Z,100267.38
2019-05-28T06:35:04.618Z,100270.11
2019-05-28T06:37:30.403Z,100274.56
2019-05-28T06:39:56.231Z,100281.32
2019-05-28T06:42:22.049Z,100279.12
2019-05-28T06:44:47.843Z,100278.08
2019-05-28T06:47:13.783Z,100275.69
2019-05-28T06:49:39.575Z,100276.11
2019-05-28T06:52:06.125Z,100276.09
2019-05-28T06:54:31.927Z,100284.37
2019-05-28T06:56:57.723Z,100290.48
2019-05-28T06:59:23.513Z,100292.31
2019-05-28T07:01:49.326Z,100294.11
2019-05-28T07:04:31.409Z,100292.48
2019-05-28T07:06:42.835Z,100296.25
2019-05-28T07:09:08.671Z,100297.59
2019-05-28T07:11:34.539Z,100298.88
2019-05-28T07:14:00.315Z,100296.55
2019-05-28T07:16:26.126Z,100295.95
2019-05-28T07:18:51.914Z,100302.88
2019-05-28T07:21:17.710Z,100292.93
2019-05-28T07:23:43.783Z,100291.33
2019-05-28T07:26:09.657Z,100295.20
2019-05-28T07:28:35.447Z,100290.63
2019-05-28T07:31:01.263Z,100296.02
2019-05-28T07:33:27.059Z,100296.92
2019-05-28T07:35:52.862Z,100296.77
2019-05-28T07:38:18.669Z,100304.18
2019-05-28T07:40:44.489Z,100300.56
2019-05-28T07:43:10.314Z,100298.27
2019-05-28T07:45:36.098Z,100304.00
2019-05-28T07:48:03.853Z,100301.52
2019-05-28T07:50:29.651Z,100305.68
2019-05-28T07:52:55.449Z,100303.67
2019-05-28T07:55:21.248Z,100308.02
2019-05-28T07:57:47.038Z,100310.41
2019-05-28T08:00:13.243Z,100308.55
2019-05-28T08:02:39.169Z,100307.80
2019-05-28T08:05:05.351Z,100316.79
2019-05-28T08:07:31.151Z,100322.13
2019-05-28T08:09:56.958Z,100316.79
2019-05-28T08:12:22.762Z,100322.58
2019-05-28T08:14:48.547Z,100318.75
2019-05-28T08:17:14.467Z,100322.58
2019-05-28T08:19:40.258Z,100328.58
2019-05-28T08:22:06.154Z,100325.66
2019-05-28T08:24:31.965Z,100325.30
2019-05-28T08:26:57.751Z,100329.19
2019-05-28T08:29:23.553Z,100336.87
2019-05-28T08:31:49.353Z,100334.17
2019-05-28T08:34:19.165Z,100338.55
2019-05-28T08:36:42.941Z,100339.38
2019-05-28T08:39:08.950Z,100345.00
2019-05-28T08:41:34.950Z,100343.03
2019-05-28T08:44:00.777Z,100338.39
2019-05-28T08:46:26.572Z,100342.91
2019-05-28T08:48:52.379Z,100343.61
2019-05-28T08:51:18.166Z,100341.87
2019-05-28T08:53:43.977Z,100348.35
2019-05-28T08:56:09.770Z,100348.96
2019-05-28T08:58:35.670Z,100356.39
2019-05-28T09:01:01.484Z,100358.55
2019-05-28T09:03:27.286Z,100361.63
2019-05-28T09:05:53.085Z,100366.48
2019-05-28T09:08:19.016Z,100360.16
2019-05-28T09:10:44.834Z,100362.66
2019-05-28T09:13:10.622Z,100365.52
2019-05-28T09:15:36.455Z,100374.36
2019-05-28T09:18:02.603Z,100361.61
2019-05-28T09:20:28.543Z,100365.19
2019-05-28T09:22:54.671Z,100362.58
2019-05-28T09:25:20.831Z,100364.53
2019-05-28T09:27:50.020Z,100360.39
2019-05-28T09:30:16.125Z,100364.86
2019-05-28T09:32:41.941Z,100367.11
2019-05-28T09:35:08.134Z,100362.63
2019-05-28T09:37:33.997Z,100362.00
2019-05-28T09:39:59.995Z,100364.23
2019-05-28T09:42:25.792Z,100376.35
2019-05-28T09:44:51.594Z,100377.80
2019-05-28T09:47:17.402Z,100377.98
2019-05-28T09:49:43.198Z,100381.47
2019-05-28T09:52:09.093Z,100386.51
2019-05-28T09:54:34.900Z,100391.13
2019-05-28T09:57:00.689Z,100383.98
2019-05-28T09:59:40.636Z,100385.16
2019-05-28T10:01:54.430Z,100385.05
2019-05-28T10:04:20.236Z,100389.20
2019-05-28T10:06:46.033Z,100390.88
2019-05-28T10:09:11.852Z,100390.09
2019-05-28T10:11:37.729Z,100396.30
2019-05-28T10:14:03.495Z,100394.94
2019-05-28T10:16:29.294Z,100401.98
2019-05-28T10:18:55.086Z,100399.06
2019-05-28T10:21:20.884Z,100406.83
2019-05-28T10:23:46.685Z,100407.31
2019-05-28T10:26:12.487Z,100410.55
2019-05-28T10:28:38.285Z,100414.77
2019-05-28T10:31:04.106Z,100413.85
2019-05-28T10:33:29.953Z,100422.87
2019-05-28T10:35:55.768Z,100417.83
2019-05-28T10:38:21.560Z,100425.53
2019-05-28T10:40:47.377Z,100432.23
2019-05-28T10:43:13.185Z,100424.22
2019-05-28T10:45:39.053Z,100428.11
2019-05-28T10:48:04.808Z,100426.55
2019-05-28T10:50:30.625Z,100431.83
2019-05-28T10:52:56.512Z,100433.19
2019-05-28T10:55:22.310Z,100437.50
2019-05-28T10:57:48.106Z,100444.09
2019-05-28T11:00:14.324Z,100447.82
2019-05-28T11:02:40.134Z,100442.33
2019-05-28T11:05:06.818Z,100444.44
2019-05-28T11:07:32.623Z,100441.78
2019-05-28T11:09:58.416Z,100450.20
2019-05-28T11:12:24.218Z,100445.94
2019-05-28T11:14:50.019Z,100449.67
2019-05-28T11:17:15.837Z,100453.13
2019-05-28T11:19:41.658Z,100454.28
2019-05-28T11:22:07.566Z,100451.72
2019-05-28T11:24:33.370Z,100451.99
2019-05-28T11:26:59.179Z,100454.19
2019-05-28T11:29:24.978Z,100454.08
2019-05-28T11:31:50.776Z,100455.55
2019-05-28T11:34:16.558Z,100449.53
2019-05-28T11:36:42.406Z,100447.73
2019-05-28T11:39:08.818Z,100454.91
2019-05-28T11:41:42.169Z,100454.39
2019-05-28T11:44:02.438Z,100454.22
2019-05-28T11:46:28.230Z,100456.37
2019-05-28T11:48:54.022Z,100451.84
2019-05-28T11:51:19.916Z,100461.84
2019-05-28T11:53:45.711Z,100457.07
2019-05-28T11:56:11.507Z,100462.23
2019-05-28T11:58:37.303Z,100461.17
2019-05-28T12:01:03.115Z,100458.75
2019-05-28T12:03:28.907Z,100462.77
2019-05-28T12:05:54.705Z,100460.93
2019-05-28T12:08:20.507Z,100455.48
2019-05-28T12:10:46.313Z,100459.98
2019-05-28T12:13:12.124Z,100459.22
2019-05-28T12:15:37.912Z,100453.48
2019-05-28T12:18:03.723Z,100461.55
2019-05-28T12:20:30.448Z,100462.23
2019-05-28T12:23:10.286Z,100471.57
2019-05-28T12:25:24.231Z,100480.25
2019-05-28T12:27:50.024Z,100469.25
2019-05-28T12:30:18.435Z,100470.13
2019-05-28T12:32:44.114Z,100467.53
2019-05-28T12:35:26.318Z,100470.42
2019-05-28T12:37:48.217Z,100474.70
2019-05-28T12:40:07.253Z,100480.56
2019-05-28T12:42:33.373Z,100476.61
2019-05-28T12:45:09.413Z,100475.41
2019-05-28T12:47:26.949Z,100478.50
2019-05-28T12:49:52.734Z,100478.11
2019-05-28T12:52:18.548Z,100476.48
2019-05-28T12:54:44.349Z,100478.98
2019-05-28T12:57:10.138Z,100473.98
2019-05-28T12:59:35.954Z,100481.76
2019-05-28T13:02:01.751Z,100481.33
2019-05-28T13:04:27.549Z,100479.14
2019-05-28T13:06:53.334Z,100485.23
2019-05-28T13:09:19.133Z,100484.91
2019-05-28T13:11:44.945Z,100481.58
2019-05-28T13:14:10.757Z,100486.78
2019-05-28T13:16:36.540Z,100495.39
2019-05-28T13:19:02.435Z,100488.47
2019-05-28T13:21:28.239Z,100492.27
2019-05-28T13:23:54.233Z,100496.81
2019-05-28T13:26:20.046Z,100496.67
2019-05-28T13:28:45.840Z,100486.45
2019-05-28T13:31:11.641Z,100484.90
2019-05-28T13:33:37.429Z,100489.73
2019-05-28T13:36:03.354Z,100488.23
2019-05-28T13:38:29.168Z,100488.01
2019-05-28T13:40:54.964Z,100487.28
2019-05-28T13:43:20.771Z,100493.81
2019-05-28T13:45:46.591Z,100504.51
2019-05-28T13:48:12.408Z,100502.02
2019-05-28T13:50:38.310Z,100502.44
2019-05-28T13:53:04.119Z,100503.02
2019-05-28T13:55:29.938Z,100507.16
2019-05-28T13:57:55.734Z,100499.64
2019-05-28T14:00:21.829Z,100503.01
2019-05-28T14:02:47.614Z,100499.83
2019-05-28T14:05:14.506Z,100502.08
2019-05-28T14:07:40.314Z,100495.89
2019-05-28T14:10:06.203Z,100500.58
2019-05-28T14:12:32.001Z,100502.84
2019-05-28T14:14:57.809Z,100505.23
2019-05-28T14:17:23.611Z,100506.80
2019-05-28T14:19:49.427Z,100506.41
2019-05-28T14:22:30.862Z,100510.20
2019-05-28T14:24:43.673Z,100515.73
2019-05-28T14:27:09.493Z,100522.83
2019-05-28T14:29:35.278Z,100531.17
2019-05-28T14:32:01.085Z,100533.41
2019-05-28T14:34:26.975Z,100536.98
2019-05-28T14:36:53.005Z,100535.55
2019-05-28T14:39:18.759Z,100536.06
2019-05-28T14:41:44.553Z,100535.61
2019-05-28T14:44:10.338Z,100537.27
2019-05-28T14:46:36.127Z,100532.19
2019-05-28T14:49:01.937Z,100541.98
2019-05-28T14:51:27.722Z,100550.98
2019-05-28T14:53:53.538Z,100551.77
2019-05-28T14:56:19.324Z,100554.73
2019-05-28T14:58:45.118Z,100563.06
2019-05-28T15:01:10.912Z,100561.74
2019-05-28T15:03:36.711Z,100559.13
2019-05-28T15:06:02.720Z,100565.17
2019-05-28T15:08:28.798Z,100563.80
2019-05-28T15:10:54.573Z,100570.58
2019-05-28T15:13:20.370Z,100571.97
2019-05-28T15:15:46.155Z,100573.92
2019-05-28T15:18:11.978Z,100580.95
2019-05-28T15:20:37.779Z,100579.25
2019-05-28T15:23:03.622Z,100579.25
2019-05-28T15:25:29.411Z,100587.78
2019-05-28T15:27:55.241Z,100591.02
2019-05-28T15:30:21.419Z,100584.52
2019-05-28T15:32:47.239Z,100582.61
2019-05-28T15:35:13.223Z,100576.05
2019-05-28T15:37:39.055Z,100582.22
2019-05-28T15:40:05.832Z,100578.45
2019-05-28T15:42:31.671Z,100581.10
2019-05-28T15:44:57.465Z,100576.98
2019-05-28T15:47:23.260Z,100587.20
2019-05-28T15:49:49.067Z,100583.02
2019-05-28T15:52:16.877Z,100598.52
2019-05-28T15:54:42.682Z,100597.51
2019-05-28T15:57:08.497Z,100600.27
2019-05-28T15:59:34.295Z,100597.25
2019-05-28T16:02:00.087Z,100602.25
2019-05-28T16:04:25.883Z,100610.26
2019-05-28T16:06:51.679Z,100603.09
2019-05-28T16:09:17.482Z,100609.56
2019-05-28T16:11:43.277Z,100613.00
2019-05-28T16:14:09.065Z,100614.89
2019-05-28T16:16:34.882Z,100618.50
2019-05-28T16:19:00.685Z,100623.33
2019-05-28T16:21:26.485Z,100618.38
2019-05-28T16:23:52.296Z,100624.29
2019-05-28T16:26:18.082Z,100626.44
2019-05-28T16:28:43.895Z,100632.53
2019-05-28T16:31:12.736Z,100634.77
2019-05-28T16:33:38.456Z,100641.16
2019-05-28T16:36:04.261Z,100643.04
2019-05-28T16:38:30.090Z,100648.84
2019-05-28T16:40:55.885Z,100654.83
2019-05-28T16:43:21.688Z,100664.42
2019-05-28T16:45:47.491Z,100661.75
2019-05-28T16:48:13.298Z,100657.91
2019-05-28T16:50:39.109Z,100664.87
2019-05-28T16:53:05.216Z,100667.20
2019-05-28T16:55:31.051Z,100673.85
2019-05-28T16:57:56.824Z,100674.04
2019-05-28T17:00:22.747Z,100681.84
2019-05-28T17:02:48.521Z,100683.00
2019-05-28T17:05:14.920Z,100687.23
2019-05-28T17:07:40.717Z,100686.95
2019-05-28T17:10:06.743Z,100691.39
2019-05-28T17:12:32.541Z,100696.47
2019-05-28T17:14:58.348Z,100696.47
2019-05-28T17:17:24.161Z,100690.72
2019-05-28T17:19:49.981Z,100701.28
2019-05-28T17:22:15.768Z,100695.04
2019-05-28T17:24:41.566Z,100696.39
2019-05-28T17:27:07.387Z,100698.81
2019-05-28T17:29:33.169Z,100706.52
2019-05-28T17:31:58.986Z,100702.89
2019-05-28T17:34:24.791Z,100701.92
2019-05-28T17:36:50.593Z,100706.27
2019-05-28T17:39:16.378Z,100707.95
2019-05-28T17:41:42.173Z,100717.91
2019-05-28T17:44:07.963Z,100712.64
2019-05-28T17:46:33.774Z,100717.40
2019-05-28T17:48:59.554Z,100719.44
2019-05-28T17:51:25.370Z,100727.34
2019-05-28T17:53:51.179Z,100727.17
2019-05-28T17:56:16.978Z,100735.87
2019-05-28T17:58:42.770Z,100741.48
2019-05-28T18:01:08.577Z,100753.95
2019-05-28T18:03:35.333Z,100757.20
2019-05-28T18:06:01.383Z,100757.50
2019-05-28T18:08:29.335Z,100756.38
2019-05-28T18:11:03.620Z,100762.16
2019-05-28T18:13:22.730Z,100771.61
2019-05-28T18:15:48.710Z,100770.80
2019-05-28T18:18:14.966Z,100770.45
2019-05-28T18:20:40.760Z,100777.97
2019-05-28T18:23:06.571Z,100775.70
2019-05-28T18:25:32.407Z,100781.70
2019-05-28T18:27:58.824Z,100788.72
2019-05-28T18:30:24.812Z,100794.49
2019-05-28T18:32:50.719Z,100794.20
2019-05-28T18:35:18.707Z,100799.32
2019-05-28T18:38:03.425Z,100804.14
2019-05-28T18:40:26.721Z,100808.31
2019-05-28T18:42:52.646Z,100793.14
2019-05-28T18:45:18.886Z,100793.14
2019-05-28T18:47:45.097Z,100812.31
2019-05-28T18:50:11.955Z,100814.47
2019-05-28T18:52:37.756Z,100811.05
2019-05-28T18:55:05.617Z,100819.39
2019-05-28T18:57:31.557Z,100822.16
2019-05-28T18:59:57.346Z,100824.38
2019-05-28T19:02:23.153Z,100827.89
2019-05-28T19:04:48.944Z,100832.98
2019-05-28T19:07:14.758Z,100832.66
2019-05-28T19:09:40.979Z,100832.66
2019-05-28T19:12:06.768Z,100845.98
2019-05-28T19:14:32.572Z,100851.89
2019-05-28T19:16:58.375Z,100852.51
2019-05-28T19:19:24.178Z,100848.75
2019-05-28T19:21:49.985Z,100862.34
2019-05-28T19:24:16.559Z,100868.05
2019-05-28T19:26:42.580Z,100866.06
2019-05-28T19:29:08.417Z,100868.31
2019-05-28T19:31:34.210Z,100870.03
2019-05-28T19:34:00.026Z,100879.24
2019-05-28T19:36:26.539Z,100876.64
2019-05-28T19:38:53.043Z,100882.77
2019-05-28T19:41:18.905Z,100881.94
2019-05-28T19:43:44.711Z,100886.99
2019-05-28T19:46:10.839Z,100893.00
2019-05-28T19:48:36.685Z,100900.25
2019-05-28T19:51:02.702Z,100898.06
2019-05-28T19:53:28.513Z,100904.92
2019-05-28T19:55:54.360Z,100905.30
2019-05-28T19:58:20.336Z,100910.61
2019-05-28T20:00:46.171Z,100910.96
2019-05-28T20:03:12.344Z,100912.31
2019-05-28T20:05:38.332Z,100913.11
2019-05-28T20:08:04.235Z,100921.27
2019-05-28T20:10:30.030Z,100924.82
2019-05-28T20:12:55.839Z,100926.93
2019-05-28T20:15:23.737Z,100926.44
2019-05-28T20:17:50.306Z,100925.84
2019-05-28T20:20:18.018Z,100929.97
2019-05-28T20:22:43.828Z,100929.97
2019-05-28T20:25:09.864Z,100927.76
2019-05-28T20:27:35.657Z,100938.11
2019-05-28T20:30:03.026Z,100945.18
2019-05-28T20:32:28.965Z,100944.66
2019-05-28T20:34:54.790Z,100948.27
2019-05-28T20:37:20.603Z,100954.61
2019-05-28T20:39:46.416Z,100965.89
2019-05-28T20:42:26.083Z,100967.56
2019-05-28T20:44:39.929Z,100972.55
2019-05-28T20:47:06.958Z,100972.55
2019-05-28T20:49:32.831Z,100984.03
2019-05-28T20:51:58.619Z,100988.40
2019-05-28T20:54:24.412Z,100994.92
2019-05-28T20:56:51.942Z,100994.73
2019-05-28T20:59:17.961Z,100998.91
2019-05-28T21:01:43.758Z,100998.91
2019-05-28T21:04:09.582Z,101000.66
2019-05-28T21:06:35.375Z,101004.55
2019-05-28T21:09:01.162Z,101010.82
2019-05-28T21:11:26.961Z,101015.39
2019-05-28T21:13:52.746Z,101014.93
2019-05-28T21:16:18.542Z,101020.61
2019-05-28T21:18:44.338Z,101022.12
2019-05-28T21:21:10.180Z,101028.29
2019-05-28T21:23:35.976Z,101030.88
2019-05-28T21:26:01.802Z,101029.00
2019-05-28T21:28:27.627Z,101041.45
2019-05-28T21:30:54.602Z,101039.16
2019-05-28T21:33:20.494Z,101047.26
2019-05-28T21:35:46.302Z,101045.58
2019-05-28T21:38:12.097Z,101049.64
2019-05-28T21:40:37.892Z,101051.67
2019-05-28T21:43:09.380Z,101057.78
2019-05-28T21:45:31.385Z,101058.84
2019-05-28T21:47:58.388Z,101063.41
2019-05-28T21:50:24.412Z,101062.09
2019-05-28T21:52:50.210Z,101070.00
2019-05-28T21:55:16.094Z,101072.08
2019-05-28T21:57:41.913Z,101069.05
2019-05-28T22:00:19.146Z,101070.63
2019-05-28T22:02:44.968Z,101077.70
2019-05-28T22:05:12.655Z,101079.11
2019-05-28T22:07:38.470Z,101074.94
2019-05-28T22:10:05.357Z,101074.94
2019-05-28T22:12:31.159Z,101077.81
2019-05-28T22:14:57.965Z,101078.66
2019-05-28T22:17:23.771Z,101086.19
2019-05-28T22:19:49.579Z,101086.19
2019-05-28T22:22:15.375Z,101085.84
2019-05-28T22:24:41.174Z,101089.53
2019-05-28T22:27:06.974Z,101091.75
2019-05-28T22:29:32.780Z,101089.45
2019-05-28T22:31:58.768Z,100722.88
2019-05-28T22:34:24.575Z,101088.17
2019-05-28T22:36:50.468Z,101088.17
2019-05-28T22:39:16.271Z,101093.89
2019-05-28T22:41:42.088Z,101090.39
2019-05-28T22:44:08.079Z,101092.25
2019-05-28T22:46:33.997Z,101093.03
2019-05-28T22:48:59.795Z,101093.94
2019-05-28T22:51:25.588Z,101097.30
2019-05-28T22:53:51.391Z,101101.48
2019-05-28T22:56:17.179Z,101101.00
2019-05-28T22:58:43.007Z,101109.41
2019-05-28T23:01:08.802Z,101113.14
2019-05-28T23:03:34.609Z,101116.84
2019-05-28T23:06:01.121Z,101115.00
2019-05-28T23:08:26.900Z,101115.00
2019-05-28T23:10:52.707Z,101123.09
2019-05-28T23:13:18.538Z,101120.41
2019-05-28T23:15:44.352Z,101118.41
2019-05-28T23:18:11.020Z,101116.91
2019-05-28T23:20:36.867Z,101123.44
2019-05-28T23:23:03.235Z,101123.28
2019-05-28T23:25:29.127Z,101124.29
2019-05-28T23:27:54.911Z,101135.05
2019-05-28T23:30:25.134Z,101131.85
2019-05-28T23:32:48.714Z,101140.42
2019-05-28T23:35:14.614Z,101144.61
2019-05-28T23:37:40.401Z,101143.09
2019-05-28T23:40:07.144Z,101147.81
2019-05-28T23:42:32.918Z,101149.81
2019-05-28T23:44:58.746Z,101154.85
2019-05-28T23:47:24.554Z,101162.06
2019-05-28T23:49:50.374Z,101156.87
2019-05-28T23:52:17.042Z,101163.91
2019-05-28T23:54:42.861Z,101165.08
2019-05-28T23:57:09.820Z,101170.27
2019-05-28T23:59:35.663Z,101166.58
